createdAt,value
2022-09-06T00:01:52.702Z,101265.81
2022-09-06T00:04:19.195Z,101259.88
2022-09-06T00:06:45.647Z,101238.75
2022-09-06T00:09:12.066Z,101237.53
2022-09-06T00:11:39.989Z,101224.13
2022-09-06T00:14:06.447Z,101228.84
2022-09-06T00:16:32.932Z,101233.28
2022-09-06T00:18:59.616Z,101218.09
2022-09-06T00:21:28.803Z,101206.88
2022-09-06T00:23:55.820Z,101209.03
2022-09-06T00:26:23.336Z,101214.28
2022-09-06T00:28:50.020Z,101230.63
2022-09-06T00:31:22.256Z,101238.28
2022-09-06T00:33:49.700Z,101245.69
2022-09-06T00:36:17.035Z,101252.16
2022-09-06T00:38:43.754Z,101248.31
2022-09-06T00:41:12.883Z,101249.13
2022-09-06T00:43:40.211Z,101260.81
2022-09-06T00:46:09.479Z,101281.50
2022-09-06T00:48:38.190Z,101287.22
2022-09-06T00:51:10.947Z,101289.75
2022-09-06T00:53:37.405Z,101280.03
2022-09-06T00:56:04.021Z,101284.06
2022-09-06T00:58:30.544Z,101273.00
2022-09-06T01:00:57.060Z,101276.63
2022-09-06T01:03:25.092Z,101285.72
2022-09-06T01:05:58.904Z,101300.16
2022-09-06T01:08:40.055Z,101339.84
2022-09-06T01:11:28.587Z,101359.91
2022-09-06T01:14:19.127Z,101358.00
2022-09-06T01:17:05.930Z,101362.84
2022-09-06T01:19:50.058Z,101360.09
2022-09-06T01:22:53.542Z,101351.47
2022-09-06T01:25:52.126Z,101358.22
2022-09-06T01:28:36.630Z,101341.97
2022-09-06T01:31:18.056Z,101343.88
2022-09-06T01:33:56.807Z,101330.81
2022-09-06T01:36:28.935Z,101341.97
2022-09-06T01:38:55.607Z,101315.44
2022-09-06T01:41:22.064Z,101327.03
2022-09-06T01:43:51.784Z,101306.38
2022-09-06T01:46:21.068Z,101297.09
2022-09-06T01:48:59.828Z,101287.16
2022-09-06T01:51:48.420Z,101280.66
2022-09-06T01:54:32.555Z,101264.63
2022-09-06T01:56:58.890Z,101246.25
2022-09-06T01:59:30.996Z,101238.69
2022-09-06T02:02:06.352Z,101221.19
2022-09-06T02:04:53.006Z,101207.69
2022-09-06T02:07:27.609Z,101192.72
2022-09-06T02:10:03.398Z,101190.00
2022-09-06T02:12:32.657Z,101180.13
2022-09-06T02:15:06.035Z,101168.75
2022-09-06T02:17:37.460Z,101163.50
2022-09-06T02:20:04.480Z,101156.50
2022-09-06T02:22:37.227Z,101141.34
2022-09-06T02:25:07.285Z,101139.38
2022-09-06T02:27:33.772Z,101135.22
2022-09-06T02:30:02.882Z,101131.16
2022-09-06T02:32:32.288Z,101135.19
2022-09-06T02:34:58.964Z,101129.94
2022-09-06T02:37:26.482Z,101118.72
2022-09-06T02:39:56.223Z,101126.13
2022-09-06T02:42:24.406Z,101120.88
2022-09-06T02:44:50.929Z,101122.59
2022-09-06T02:47:17.525Z,101131.47
2022-09-06T02:49:43.912Z,101121.75
2022-09-06T02:52:10.405Z,101122.56
2022-09-06T02:54:36.801Z,101124.06
2022-09-06T02:57:03.648Z,101121.97
2022-09-06T02:59:30.058Z,101118.59
2022-09-06T03:01:56.513Z,101122.59
2022-09-06T03:04:23.007Z,101119.41
2022-09-06T03:06:49.554Z,101120.66
2022-09-06T03:09:15.975Z,101115.63
2022-09-06T03:11:42.571Z,101111.63
2022-09-06T03:14:08.989Z,101107.63
2022-09-06T03:16:36.927Z,101109.97
2022-09-06T03:19:03.437Z,101111.00
2022-09-06T03:21:30.009Z,101117.75
2022-09-06T03:23:56.518Z,101122.19
2022-09-06T03:26:23.010Z,101119.84
2022-09-06T03:28:50.411Z,101124.28
2022-09-06T03:31:17.220Z,101128.72
2022-09-06T03:33:43.720Z,101121.59
2022-09-06T03:36:10.187Z,101118.19
2022-09-06T03:38:36.648Z,101124.91
2022-09-06T03:41:03.217Z,101124.50
2022-09-06T03:43:29.834Z,101133.34
2022-09-06T03:45:57.471Z,101138.81
2022-09-06T03:48:26.694Z,101140.72
2022-09-06T03:50:56.361Z,101155.28
2022-09-06T03:53:24.558Z,101145.16
2022-09-06T03:55:53.184Z,101142.63
2022-09-06T03:58:21.981Z,101142.19
2022-09-06T04:00:48.789Z,101138.38
2022-09-06T04:03:15.453Z,101149.78
2022-09-06T04:05:46.409Z,101142.19
2022-09-06T04:08:13.163Z,101139.25
2022-09-06T04:10:39.819Z,101140.94
2022-09-06T04:13:06.234Z,101148.72
2022-09-06T04:15:32.706Z,101137.97
2022-09-06T04:17:59.120Z,101133.75
2022-09-06T04:20:25.525Z,101143.25
2022-09-06T04:22:51.933Z,101141.34
2022-09-06T04:25:18.321Z,101151.25
2022-09-06T04:27:44.745Z,101150.81
2022-09-06T04:30:11.434Z,101153.16
2022-09-06T04:32:37.853Z,101155.91
2022-09-06T04:35:04.905Z,101154.63
2022-09-06T04:37:31.980Z,101151.03
2022-09-06T04:39:58.455Z,101151.66
2022-09-06T04:42:24.884Z,101152.53
2022-09-06T04:44:51.286Z,101157.81
2022-09-06T04:47:19.200Z,101164.53
2022-09-06T04:49:45.915Z,101161.38
2022-09-06T04:52:12.495Z,101166.00
2022-09-06T04:54:39.057Z,101174.63
2022-09-06T04:57:05.742Z,101174.03
2022-09-06T04:59:32.799Z,101179.50
2022-09-06T05:01:59.295Z,101177.81
2022-09-06T05:04:26.112Z,101180.75
2022-09-06T05:07:05.065Z,101171.69
2022-09-06T05:09:32.576Z,101179.28
2022-09-06T05:11:59.807Z,101184.31
2022-09-06T05:14:27.372Z,101192.75
2022-09-06T05:16:54.555Z,101184.34
2022-09-06T05:19:21.674Z,101187.50
2022-09-06T05:21:48.106Z,101190.25
2022-09-06T05:24:14.526Z,101196.97
2022-09-06T05:26:40.946Z,101203.94
2022-09-06T05:29:07.344Z,101201.81
2022-09-06T05:31:35.372Z,101210.03
2022-09-06T05:34:02.108Z,101207.28
2022-09-06T05:36:30.329Z,101212.75
2022-09-06T05:38:57.825Z,101215.72
2022-09-06T05:41:24.959Z,101229.63
2022-09-06T05:43:51.363Z,101224.75
2022-09-06T05:46:17.890Z,101223.06
2022-09-06T05:48:44.458Z,101225.38
2022-09-06T05:51:13.417Z,101227.06
2022-09-06T05:53:43.193Z,101225.59
2022-09-06T05:56:13.761Z,101235.47
2022-09-06T05:58:40.698Z,101240.09
2022-09-06T06:01:14.425Z,101250.44
2022-09-06T06:03:40.954Z,101244.53
2022-09-06T06:06:07.496Z,101246.25
2022-09-06T06:08:35.158Z,101253.97
2022-09-06T06:11:02.467Z,101261.59
2022-09-06T06:13:30.059Z,101263.47
2022-09-06T06:15:56.675Z,101254.03
2022-09-06T06:18:23.329Z,101259.28
2022-09-06T06:20:49.885Z,101249.78
2022-09-06T06:23:16.350Z,101252.34
2022-09-06T06:25:42.781Z,101242.25
2022-09-06T06:28:09.213Z,101240.13
2022-09-06T06:30:35.913Z,101236.13
2022-09-06T06:33:02.533Z,101231.28
2022-09-06T06:35:29.058Z,101224.53
2022-09-06T06:37:56.351Z,101223.31
2022-09-06T06:40:22.756Z,101228.34
2022-09-06T06:42:49.180Z,101226.22
2022-09-06T06:45:15.678Z,101230.25
2022-09-06T06:47:42.071Z,101219.50
2022-09-06T06:50:08.837Z,101217.41
2022-09-06T06:52:35.293Z,101215.91
2022-09-06T06:55:01.713Z,101217.41
2022-09-06T06:57:28.117Z,101222.88
2022-09-06T06:59:54.545Z,101208.34
2022-09-06T07:02:20.991Z,101215.72
2022-09-06T07:04:47.552Z,101210.03
2022-09-06T07:12:42.332Z,101205.19
2022-09-06T07:15:09.394Z,101200.34
2022-09-06T07:17:35.778Z,101197.13
2022-09-06T07:22:36.750Z,101191.63
2022-09-06T07:25:04.570Z,101191.31
2022-09-06T07:27:47.646Z,101186.19
2022-09-06T07:30:15.272Z,101185.00
2022-09-06T07:32:41.693Z,101175.47
2022-09-06T07:35:08.627Z,101178.28
2022-09-06T07:37:35.465Z,101192.47
2022-09-06T07:40:03.308Z,101187.75
2022-09-06T07:42:35.623Z,101182.50
2022-09-06T07:45:03.387Z,101173.97
2022-09-06T07:55:38.204Z,101187.13
2022-09-06T07:58:04.962Z,101184.47
2022-09-06T08:00:31.913Z,101174.91
2022-09-06T08:02:58.428Z,101181.25
2022-09-06T08:10:57.703Z,101177.34
2022-09-06T08:13:24.150Z,101163.44
2022-09-06T08:16:01.650Z,101175.06
2022-09-06T08:18:28.237Z,101164.25
2022-09-06T08:20:55.234Z,101176.66
2022-09-06T08:23:21.723Z,101173.59
2022-09-06T08:25:58.537Z,101166.03
2022-09-06T08:28:28.572Z,101173.00
2022-09-06T08:30:56.008Z,101172.09
2022-09-06T08:33:25.482Z,101168.59
2022-09-06T08:35:58.927Z,101163.97
2022-09-06T08:38:26.655Z,101157.28
2022-09-06T08:40:55.279Z,101164.97
2022-09-06T08:43:22.910Z,101165.19
2022-09-06T08:45:55.978Z,101153.06
2022-09-06T08:48:25.293Z,101154.97
2022-09-06T08:51:11.912Z,101149.69
2022-09-06T08:53:46.425Z,101151.44
2022-09-06T08:56:23.297Z,101139.19
2022-09-06T08:59:11.443Z,101145.44
2022-09-06T09:02:12.175Z,101146.06
2022-09-06T09:04:45.870Z,101142.84
2022-09-06T09:07:39.178Z,101145.91
2022-09-06T09:10:23.861Z,101140.09
2022-09-06T09:12:50.413Z,101137.91
2022-09-06T09:15:19.199Z,101140.13
2022-09-06T09:17:48.435Z,101138.75
2022-09-06T09:20:15.195Z,101131.16
2022-09-06T09:22:42.054Z,101133.47
2022-09-06T09:25:12.831Z,101144.84
2022-09-06T09:27:40.104Z,101145.41
2022-09-06T09:32:53.917Z,101132.34
2022-09-06T09:35:22.307Z,101131.94
2022-09-06T09:38:05.007Z,101128.38
2022-09-06T09:40:40.167Z,101133.38
2022-09-06T09:43:26.408Z,101132.00
2022-09-06T09:46:14.604Z,101127.78
2022-09-06T09:49:00.397Z,101124.38
2022-09-06T09:51:27.930Z,101132.00
2022-09-06T09:53:59.459Z,101129.94
2022-09-06T09:56:52.946Z,101131.53
2022-09-06T09:59:21.703Z,101133.31
2022-09-06T10:01:48.631Z,101122.13
2022-09-06T10:04:44.432Z,101135.13
2022-09-06T10:07:13.097Z,101141.63
2022-09-06T10:09:42.653Z,101125.97
2022-09-06T10:12:15.973Z,101128.88
2022-09-06T10:14:48.675Z,101129.41
2022-09-06T10:17:30.437Z,101133.59
2022-09-06T10:20:00.270Z,101113.19
2022-09-06T10:22:28.462Z,101135.44
2022-09-06T10:25:25.767Z,101126.31
2022-09-06T10:28:27.494Z,101122.59
2022-09-06T10:31:10.144Z,101126.16
2022-09-06T10:33:48.430Z,101130.91
2022-09-06T10:36:21.024Z,101132.56
2022-09-06T10:39:08.449Z,101122.66
2022-09-06T10:42:00.798Z,101125.69
2022-09-06T10:45:14.757Z,101125.00
2022-09-06T10:47:56.396Z,101130.13
2022-09-06T10:50:57.524Z,101139.44
2022-09-06T10:53:34.880Z,101133.19
2022-09-06T10:56:07.324Z,101142.53
2022-09-06T11:02:01.001Z,101148.16
2022-09-06T11:04:32.251Z,101136.13
2022-09-06T11:07:02.819Z,101131.06
2022-09-06T11:09:35.958Z,101130.81
2022-09-06T11:12:23.822Z,101126.00
2022-09-06T11:14:51.397Z,101136.97
2022-09-06T11:17:52.310Z,101136.81
2022-09-06T11:20:21.498Z,101139.28
2022-09-06T11:23:02.903Z,101148.06
2022-09-06T11:25:56.579Z,101153.56
2022-09-06T11:28:35.309Z,101155.56
2022-09-06T11:31:02.813Z,101157.56
2022-09-06T11:33:35.488Z,101167.25
2022-09-06T11:36:34.377Z,101160.03
2022-09-06T11:39:03.368Z,101142.47
2022-09-06T11:41:33.896Z,101153.44
2022-09-06T11:44:00.937Z,101158.72
2022-09-06T11:46:33.263Z,101164.97
2022-09-06T11:49:00.362Z,101164.34
2022-09-06T11:51:40.200Z,101164.91
2022-09-06T11:54:19.953Z,101169.91
2022-09-06T11:56:46.274Z,101149.50
2022-09-06T11:59:21.614Z,101163.19
2022-09-06T12:02:03.479Z,101159.69
2022-09-06T12:05:01.134Z,101152.38
2022-09-06T12:07:29.361Z,101155.53
2022-09-06T12:09:56.121Z,101155.53
2022-09-06T12:12:40.445Z,101153.66
2022-09-06T12:15:26.661Z,101143.44
2022-09-06T12:17:53.484Z,101143.44
2022-09-06T12:20:47.662Z,101144.72
2022-09-06T12:23:32.703Z,101135.28
2022-09-06T12:25:59.195Z,101144.16
2022-09-06T12:28:32.032Z,101138.03
2022-09-06T12:30:59.514Z,101138.81
2022-09-06T12:33:39.301Z,101149.47
2022-09-06T12:36:29.656Z,101140.13
2022-09-06T12:39:08.489Z,101131.97
2022-09-06T12:41:43.703Z,101129.81
2022-09-06T12:44:11.321Z,101131.03
2022-09-06T12:46:39.936Z,101121.91
2022-09-06T12:49:09.422Z,101119.13
2022-09-06T12:51:40.990Z,101116.44
2022-09-06T12:54:25.573Z,101121.91
2022-09-06T12:56:53.368Z,101119.72
2022-09-06T12:59:25.397Z,101120.06
2022-09-06T13:02:00.856Z,101119.31
2022-09-06T13:04:36.605Z,101107.00
2022-09-06T13:07:04.992Z,101112.84
2022-09-06T13:09:31.973Z,101110.94
2022-09-06T13:12:08.176Z,101106.00
2022-09-06T13:14:35.683Z,101109.94
2022-09-06T13:17:02.408Z,101110.31
2022-09-06T13:19:40.597Z,101106.69
2022-09-06T13:22:10.920Z,101103.19
2022-09-06T13:24:37.280Z,101105.16
2022-09-06T13:27:45.838Z,101094.22
2022-09-06T13:30:42.143Z,101091.34
2022-09-06T13:33:23.239Z,101080.84
2022-09-06T13:36:04.167Z,101073.69
2022-09-06T13:38:32.610Z,101070.34
2022-09-06T13:41:12.570Z,101064.69
2022-09-06T13:43:46.157Z,101075.69
2022-09-06T13:46:12.632Z,101076.31
2022-09-06T13:48:44.522Z,101074.91
2022-09-06T13:51:11.778Z,101076.59
2022-09-06T13:53:38.164Z,101068.97
2022-09-06T13:56:08.619Z,101067.38
2022-09-06T13:58:36.132Z,101051.84
2022-09-06T14:01:03.025Z,101050.41
2022-09-06T14:03:32.459Z,101054.59
2022-09-06T14:06:00.261Z,101038.25
2022-09-06T14:08:38.867Z,101038.88
2022-09-06T14:11:14.909Z,101047.25
2022-09-06T14:13:41.746Z,101040.47
2022-09-06T14:16:08.394Z,101041.94
2022-09-06T14:18:34.889Z,101038.97
2022-09-06T14:21:01.360Z,101046.94
2022-09-06T14:23:28.401Z,101055.72
2022-09-06T14:26:00.198Z,101057.56
2022-09-06T14:28:27.200Z,101061.03
2022-09-06T14:30:54.380Z,101056.34
2022-09-06T14:33:21.386Z,101058.78
2022-09-06T14:35:48.895Z,101060.41
2022-09-06T14:38:15.503Z,101051.81
2022-09-06T14:40:44.183Z,101062.97
2022-09-06T14:43:10.955Z,101061.09
2022-09-06T14:45:37.611Z,101068.00
2022-09-06T14:48:04.433Z,101066.31
2022-09-06T14:50:31.404Z,101065.72
2022-09-06T14:52:58.419Z,101072.75
2022-09-06T14:55:24.879Z,101066.09
2022-09-06T14:57:51.317Z,101059.75
2022-09-06T15:00:18.930Z,101064.44
2022-09-06T15:02:45.373Z,101062.25
2022-09-06T15:05:11.882Z,101059.75
2022-09-06T15:07:38.298Z,101057.25
2022-09-06T15:10:05.154Z,101054.22
2022-09-06T15:12:31.610Z,101051.97
2022-09-06T15:14:58.010Z,101049.78
2022-09-06T15:17:25.106Z,101044.47
2022-09-06T15:19:51.526Z,101036.97
2022-09-06T15:22:17.909Z,101028.94
2022-09-06T15:24:47.338Z,101036.72
2022-09-06T15:27:13.785Z,101030.28
2022-09-06T15:29:40.241Z,101024.19
2022-09-06T15:32:07.273Z,101018.63
2022-09-06T15:34:33.781Z,101015.56
2022-09-06T15:37:00.216Z,101011.38
2022-09-06T15:39:26.759Z,101009.69
2022-09-06T15:41:53.228Z,101009.69
2022-09-06T15:44:21.471Z,101004.72
2022-09-06T15:46:53.965Z,101003.59
2022-09-06T15:49:31.841Z,101004.16
2022-09-06T15:52:01.315Z,101015.84
2022-09-06T15:54:46.984Z,101026.63
2022-09-06T15:57:16.310Z,101021.94
2022-09-06T15:59:42.859Z,101023.56
2022-09-06T16:02:09.688Z,101021.03
2022-09-06T16:04:36.135Z,101006.06
2022-09-06T16:07:02.619Z,101006.59
2022-09-06T16:09:29.365Z,101003.81
2022-09-06T16:11:55.803Z,100995.81
2022-09-06T16:14:22.318Z,100991.56
2022-09-06T16:16:49.303Z,100996.28
2022-09-06T16:19:16.199Z,100996.28
2022-09-06T16:21:43.744Z,100999.56
2022-09-06T16:24:13.287Z,101007.53
2022-09-06T16:26:44.706Z,101005.06
2022-09-06T16:29:13.234Z,100996.97
2022-09-06T16:31:40.860Z,100992.28
2022-09-06T16:34:11.948Z,100996.47
2022-09-06T16:36:38.690Z,101006.38
2022-09-06T16:39:06.125Z,101001.19
2022-09-06T16:41:39.381Z,100994.34
2022-09-06T16:44:07.302Z,100994.31
2022-09-06T16:46:33.957Z,100995.75
2022-09-06T16:49:02.757Z,100990.47
2022-09-06T16:51:31.384Z,100998.41
2022-09-06T16:53:58.865Z,101001.75
2022-09-06T16:56:29.177Z,101006.16
2022-09-06T16:58:58.522Z,101003.63
2022-09-06T17:01:26.806Z,101007.28
2022-09-06T17:03:53.648Z,100994.97
2022-09-06T17:06:20.999Z,101002.16
2022-09-06T17:08:47.811Z,101000.72
2022-09-06T17:11:16.764Z,101008.53
2022-09-06T17:13:45.083Z,101004.25
2022-09-06T17:16:31.208Z,101001.28
2022-09-06T17:18:59.102Z,101001.53
2022-09-06T17:21:25.786Z,101003.34
2022-09-06T17:23:52.441Z,100997.78
2022-09-06T17:26:21.098Z,101006.38
2022-09-06T17:28:49.298Z,101003.97
2022-09-06T17:31:16.402Z,101009.28
2022-09-06T17:33:42.850Z,101000.97
2022-09-06T17:36:17.007Z,101000.31
2022-09-06T17:38:44.917Z,100999.44
2022-09-06T17:41:27.361Z,101000.56
2022-09-06T17:43:54.912Z,101006.88
2022-09-06T17:46:28.381Z,101005.13
2022-09-06T17:48:56.089Z,101000.13
2022-09-06T17:51:23.025Z,101005.44
2022-09-06T17:53:49.489Z,100995.72
2022-09-06T17:56:17.884Z,100996.44
2022-09-06T17:58:53.322Z,100998.22
2022-09-06T18:01:19.972Z,100994.09
2022-09-06T18:03:47.378Z,101003.41
2022-09-06T18:06:15.908Z,100995.06
2022-09-06T18:08:43.943Z,100995.19
2022-09-06T18:11:11.477Z,100988.47
2022-09-06T18:13:38.037Z,100990.13
2022-09-06T18:16:05.047Z,100990.84
2022-09-06T18:18:32.907Z,100991.56
2022-09-06T18:20:59.570Z,100995.28
2022-09-06T18:23:25.972Z,100987.69
2022-09-06T18:26:05.874Z,100991.66
2022-09-06T18:28:34.847Z,100983.28
2022-09-06T18:31:05.354Z,100976.91
2022-09-06T18:33:32.391Z,100964.38
2022-09-06T18:35:58.791Z,100967.22
2022-09-06T18:38:25.330Z,100966.03
2022-09-06T18:40:59.978Z,100961.13
2022-09-06T18:43:36.385Z,100960.53
2022-09-06T18:46:08.332Z,100954.19
2022-09-06T18:48:36.665Z,100954.59
2022-09-06T18:51:05.125Z,100954.53
2022-09-06T18:53:31.753Z,100961.88
2022-09-06T18:55:58.166Z,100963.00
2022-09-06T18:58:24.817Z,100964.16
2022-09-06T19:00:52.537Z,100967.31
2022-09-06T19:03:19.872Z,100968.66
2022-09-06T19:05:46.305Z,100964.75
2022-09-06T19:08:12.748Z,100959.47
2022-09-06T19:10:39.222Z,100951.59
2022-09-06T19:13:05.683Z,100943.91
2022-09-06T19:15:32.079Z,100936.00
2022-09-06T19:17:58.517Z,100931.91
2022-09-06T19:20:24.977Z,100923.75
2022-09-06T19:22:51.448Z,100922.19
2022-09-06T19:25:19.015Z,100910.66
2022-09-06T19:27:48.818Z,100905.66
2022-09-06T19:30:15.538Z,100914.41
2022-09-06T19:32:41.954Z,100909.53
2022-09-06T19:35:08.745Z,100908.28
2022-09-06T19:37:35.347Z,100908.00
2022-09-06T19:40:02.123Z,100903.13
2022-09-06T19:42:29.089Z,100892.84
2022-09-06T19:44:55.573Z,100883.22
2022-09-06T19:47:22.003Z,100894.50
2022-09-06T19:49:48.497Z,100894.66
2022-09-06T19:52:14.917Z,100891.16
2022-09-06T19:54:42.561Z,100890.22
2022-09-06T19:57:08.960Z,100889.72
2022-09-06T19:59:36.607Z,100886.13
2022-09-06T20:02:03.502Z,100880.88
2022-09-06T20:04:30.268Z,100885.72
2022-09-06T20:06:56.764Z,100881.88
2022-09-06T20:09:23.186Z,100881.06
2022-09-06T20:11:49.832Z,100893.38
2022-09-06T20:14:16.296Z,100898.09
2022-09-06T20:16:43.022Z,100907.34
2022-09-06T20:19:11.051Z,100901.78
2022-09-06T20:21:37.455Z,100887.47
2022-09-06T20:24:04.118Z,100868.25
2022-09-06T20:26:30.791Z,100854.88
2022-09-06T20:28:59.405Z,100847.56
2022-09-06T20:31:28.033Z,100839.44
2022-09-06T20:33:54.778Z,100823.19
2022-09-06T20:36:21.250Z,100815.78
2022-09-06T20:38:48.424Z,100806.19
2022-09-06T20:41:17.311Z,100802.00
2022-09-06T20:43:44.702Z,100800.97
2022-09-06T20:46:14.712Z,100787.19
2022-09-06T20:48:44.645Z,100784.91
2022-09-06T20:51:19.016Z,100786.81
2022-09-06T20:53:48.262Z,100770.88
2022-09-06T20:56:19.728Z,100773.03
2022-09-06T20:58:55.212Z,100778.06
2022-09-06T21:01:24.468Z,100783.63
2022-09-06T21:03:54.568Z,100782.34
2022-09-06T21:06:22.344Z,100780.66
2022-09-06T21:08:49.466Z,100784.56
2022-09-06T21:11:16.118Z,100779.28
2022-09-06T21:13:42.613Z,100775.94
2022-09-06T21:16:09.579Z,100770.91
2022-09-06T21:18:36.571Z,100774.56
2022-09-06T21:21:05.882Z,100777.03
2022-09-06T21:23:34.558Z,100780.13
2022-09-06T21:26:06.127Z,100772.00
2022-09-06T21:28:35.605Z,100768.25
2022-09-06T21:31:14.966Z,100771.63
2022-09-06T21:33:47.265Z,100766.47
2022-09-06T21:36:16.418Z,100768.19
2022-09-06T21:38:45.387Z,100783.34
2022-09-06T21:41:13.565Z,100781.44
2022-09-06T21:43:40.270Z,100793.72
2022-09-06T21:46:09.844Z,100790.41
2022-09-06T21:48:41.244Z,100793.94
2022-09-06T21:51:08.964Z,100794.78
2022-09-06T21:53:36.312Z,100789.88
2022-09-06T21:56:06.124Z,100777.84
2022-09-06T21:58:33.267Z,100765.75
2022-09-06T22:01:01.131Z,100755.94
2022-09-06T22:03:29.858Z,100748.66
2022-09-06T22:05:56.902Z,100730.41
2022-09-06T22:08:24.158Z,100716.22
2022-09-06T22:10:51.434Z,100707.78
2022-09-06T22:13:19.699Z,100731.47
2022-09-06T22:15:46.247Z,100751.94
2022-09-06T22:18:13.507Z,100753.72
2022-09-06T22:20:40.123Z,100772.47
2022-09-06T22:23:07.836Z,100796.94
2022-09-06T22:25:34.271Z,100793.75
2022-09-06T22:28:01.240Z,100826.44
2022-09-06T22:30:28.211Z,100894.50
2022-09-06T22:32:54.645Z,100920.09
2022-09-06T22:35:21.850Z,100907.78
2022-09-06T22:37:48.388Z,100917.75
2022-09-06T22:40:14.924Z,100933.66
2022-09-06T22:42:41.338Z,100982.31
2022-09-06T22:45:08.193Z,100982.50
2022-09-06T22:47:34.603Z,100976.03
2022-09-06T22:50:01.003Z,100946.41
2022-09-06T22:52:27.587Z,100960.13
2022-09-06T22:54:53.990Z,100962.47
2022-09-06T22:57:20.641Z,100970.19
2022-09-06T22:59:47.047Z,101010.94
2022-09-06T23:02:13.498Z,101024.63
2022-09-06T23:04:39.940Z,100995.94
2022-09-06T23:07:06.986Z,100990.22
2022-09-06T23:09:33.394Z,100993.69
2022-09-06T23:11:59.873Z,100989.59
2022-09-06T23:14:28.080Z,100993.41
2022-09-06T23:16:54.536Z,100990.09
2022-09-06T23:19:20.964Z,100982.56
2022-09-06T23:21:47.491Z,100977.19
2022-09-06T23:24:13.952Z,100968.00
2022-09-06T23:26:40.375Z,100968.25
2022-09-06T23:29:07.835Z,100956.81
2022-09-06T23:31:34.865Z,100942.66
2022-09-06T23:34:02.032Z,100927.56
2022-09-06T23:36:29.247Z,100904.34
2022-09-06T23:38:56.770Z,100891.03
2022-09-06T23:41:24.138Z,100888.09
2022-09-06T23:43:50.877Z,100887.25
2022-09-06T23:46:17.592Z,100878.94
2022-09-06T23:48:44.224Z,100880.72
2022-09-06T23:51:11.802Z,100889.50
2022-09-06T23:53:39.237Z,100896.13
2022-09-06T23:56:07.019Z,100893.75
2022-09-06T23:58:33.595Z,100878.38
